Aviation Digital Data Service (ADDS)

Output produced by TAFs form (1433 UTC 24 July 2017)
found at http://www.aviationweather.gov/adds/tafs/
 
METAR text: WMKK 241400Z 05005KT 010V100 9000 FEW030 BKN280 29/24 Q1008 NOSIG
Conditions at: WMKK (KUALA LUMPUR/SUB, MY) observed 1400 UTC 24 July 2017
Temperature: 29.0°C (84°F)
Dewpoint: 24.0°C (75°F) [RH = 74%]
Pressure (altimeter): 29.76 inches Hg (1008.0 mb)
Winds: from the NE (50 degrees) at 6 MPH (5 knots; 2.6 m/s)
Visibility: 6 miles (9 km)
Ceiling: 28000 feet AGL
Clouds: few clouds at 3000 feet AGL
broken clouds at 28000 feet AGL
Weather: no significant weather observed at this time

Forecast for: WMKK (KUALA LUMPUR/SUB, MY)
Text: TAF WMKK 241100Z 2412/2518 VRB02KT 9999 FEW018 SCT140 BKN280
Forecast period: 1200 UTC 24 July 2017 to 1800 UTC 25 July 2017
Forecast type: FROM: standard forecast or significant change
Winds: variable direction winds at 2 MPH (2 knots; 1.0 m/s)
Visibility: 6 or more miles (10+ km)
Ceiling: 28000 feet AGL
Clouds: few clouds at 1800 feet AGL
scattered clouds at 14000 feet AGL
broken clouds at 28000 feet AGL
Weather: no significant weather forecast for this period
Text: PROB30
Forecast period: 2000 UTC 24 July 2017 to 0000 UTC 25 July 2017
Forecast type: TEMPORARY: The following changes expected for less than half the time period
Visibility: 1.86 miles (2.99 km)
Clouds: few clouds at 1500 feet AGL
scattered clouds at 1800 feet AGL
Weather: TSRA  (rain associated with thunderstorm(s))